createdAt,value
2022-12-14T00:02:07.161Z,94091.00
2022-12-14T00:06:11.669Z,94079.00
2022-12-14T00:10:14.375Z,94094.00
2022-12-14T00:14:18.507Z,94100.00
2022-12-14T00:18:22.713Z,94101.00
2022-12-14T00:22:25.514Z,94121.00
2022-12-14T00:26:30.903Z,94137.00
2022-12-14T00:30:35.313Z,94133.00
2022-12-14T00:34:38.026Z,94110.00
2022-12-14T00:38:42.290Z,94082.00
2022-12-14T00:42:44.975Z,94112.00
2022-12-14T00:46:48.982Z,94078.00
2022-12-14T00:50:53.711Z,94108.00
2022-12-14T00:54:56.348Z,94097.00
2022-12-14T00:58:59.037Z,94106.00
2022-12-14T01:03:03.326Z,94128.00
2022-12-14T01:07:06.088Z,94120.00
2022-12-14T01:11:13.177Z,94127.00
2022-12-14T01:15:16.107Z,94113.00
2022-12-14T01:19:20.196Z,94103.00
2022-12-14T01:23:22.907Z,94105.00
2022-12-14T01:27:25.934Z,94102.00
2022-12-14T01:37:51.595Z,94094.00
2022-12-14T01:41:54.334Z,94111.00
2022-12-14T01:45:57.332Z,94106.00
2022-12-14T01:50:07.625Z,94108.00
2022-12-14T01:54:14.048Z,94117.00
2022-12-14T01:58:19.617Z,94114.00
2022-12-14T02:02:23.066Z,94101.00
2022-12-14T02:06:30.560Z,94085.00
2022-12-14T02:10:35.144Z,94083.00
2022-12-14T02:14:38.636Z,94069.00
2022-12-14T02:18:41.455Z,94066.00
2022-12-14T02:23:23.352Z,94081.00
2022-12-14T02:27:47.713Z,94056.00
2022-12-14T02:31:59.206Z,94068.00
2022-12-14T02:36:05.953Z,94055.00
2022-12-14T02:40:22.622Z,94036.00
2022-12-14T02:44:40.731Z,94055.00
2022-12-14T02:48:49.471Z,94054.00
2022-12-14T02:52:59.538Z,94044.00
2022-12-14T02:57:07.867Z,94042.00
2022-12-14T03:01:13.816Z,94057.00
2022-12-14T03:05:18.107Z,94041.00
2022-12-14T03:09:21.004Z,94010.00
2022-12-14T03:13:28.233Z,94011.00
2022-12-14T03:17:34.902Z,94009.00
2022-12-14T03:21:44.152Z,94016.00
2022-12-14T03:53:45.915Z,94022.00
2022-12-14T03:58:04.202Z,94022.00
2022-12-14T04:02:16.753Z,94033.00
2022-12-14T04:06:28.500Z,94021.00
2022-12-14T04:10:57.813Z,94014.00
2022-12-14T04:15:23.068Z,94005.00
2022-12-14T04:19:32.561Z,93989.00
2022-12-14T04:23:58.585Z,93989.00
2022-12-14T04:28:06.967Z,93972.00
2022-12-14T04:32:14.839Z,93960.00
2022-12-14T04:36:23.579Z,93955.00
2022-12-14T04:40:31.147Z,93957.00
2022-12-14T04:44:38.454Z,93943.00
2022-12-14T04:48:46.178Z,93936.00
2022-12-14T04:52:54.016Z,93935.00
2022-12-14T04:57:02.202Z,93914.00
2022-12-14T05:01:21.019Z,93951.00
2022-12-14T05:05:30.754Z,93945.00
2022-12-14T05:09:37.967Z,93951.00
2022-12-14T05:13:44.318Z,93944.00
2022-12-14T05:17:53.760Z,93953.00
2022-12-14T05:21:56.720Z,93954.00
2022-12-14T05:25:59.464Z,93947.00
2022-12-14T05:30:02.262Z,93932.00
2022-12-14T05:34:06.398Z,93916.00
2022-12-14T05:38:10.056Z,93919.00
2022-12-14T05:42:12.855Z,93913.00
2022-12-14T05:46:15.728Z,93903.00
2022-12-14T05:50:19.943Z,93911.00
2022-12-14T05:54:22.744Z,93903.00
2022-12-14T05:58:25.778Z,93891.00
2022-12-14T06:02:28.626Z,93896.00
2022-12-14T06:06:34.210Z,93879.00
2022-12-14T06:10:37.005Z,93877.00
2022-12-14T06:14:39.788Z,93893.00
2022-12-14T06:18:44.177Z,93889.00
2022-12-14T06:22:48.324Z,93889.00
2022-12-14T06:26:51.225Z,93888.00
2022-12-14T06:30:54.060Z,93883.00
2022-12-14T06:34:56.919Z,93877.00
2022-12-14T06:39:02.737Z,93880.00
2022-12-14T06:43:05.560Z,93869.00
2022-12-14T06:47:08.371Z,93851.00
2022-12-14T06:51:11.472Z,93859.00
2022-12-14T06:55:15.884Z,93853.00
2022-12-14T06:59:18.669Z,93859.00
2022-12-14T07:03:21.441Z,93851.00
2022-12-14T07:07:24.192Z,93844.00
2022-12-14T07:11:29.389Z,93837.00
2022-12-14T07:15:32.242Z,93837.00
2022-12-14T07:19:35.060Z,93839.00
2022-12-14T07:23:39.682Z,93832.00
2022-12-14T07:27:43.839Z,93821.00
2022-12-14T07:31:49.381Z,93828.00
2022-12-14T07:35:52.477Z,93819.00
2022-12-14T07:39:55.250Z,93806.00
2022-12-14T07:44:01.230Z,93814.00
2022-12-14T07:48:04.142Z,93828.00
2022-12-14T07:52:06.938Z,93812.00
2022-12-14T07:56:12.091Z,93825.00
2022-12-14T08:00:17.674Z,93813.00
2022-12-14T08:04:21.031Z,93797.00
2022-12-14T08:08:23.844Z,93801.00
2022-12-14T08:12:26.593Z,93804.00
2022-12-14T08:16:32.657Z,93779.00
2022-12-14T08:20:35.539Z,93765.00
2022-12-14T08:24:38.267Z,93785.00
2022-12-14T08:28:41.255Z,93782.00
2022-12-14T08:32:45.337Z,93786.00
2022-12-14T08:36:48.067Z,93787.00
2022-12-14T08:40:50.778Z,93786.00
2022-12-14T08:44:53.506Z,93792.00
2022-12-14T08:48:58.888Z,93758.00
2022-12-14T08:53:02.060Z,93774.00
2022-12-14T08:57:05.368Z,93762.00
2022-12-14T09:01:12.164Z,93767.00
2022-12-14T09:05:17.780Z,93772.00
2022-12-14T09:09:20.581Z,93766.00
2022-12-14T09:13:23.388Z,93750.00
2022-12-14T09:17:26.164Z,93745.00
2022-12-14T09:21:31.562Z,93756.00
2022-12-14T09:25:35.035Z,93772.00
2022-12-14T09:29:37.793Z,93750.00
2022-12-14T09:33:40.897Z,93738.00
2022-12-14T09:37:45.021Z,93730.00
2022-12-14T09:42:00.849Z,93730.00
2022-12-14T09:46:20.246Z,93724.00
2022-12-14T09:50:24.363Z,93701.00
2022-12-14T09:54:30.764Z,93695.00
2022-12-14T09:58:34.795Z,93701.00
2022-12-14T10:02:47.390Z,93692.00
2022-12-14T10:06:56.531Z,93674.00
2022-12-14T10:11:07.284Z,93680.00
2022-12-14T10:15:22.041Z,93668.00
2022-12-14T10:19:35.959Z,93664.00
2022-12-14T10:23:42.486Z,93655.00
2022-12-14T10:28:10.301Z,93628.00
2022-12-14T10:32:21.663Z,93639.00
2022-12-14T10:36:29.909Z,93637.00
2022-12-14T10:40:35.236Z,93641.00
2022-12-14T10:44:49.408Z,93652.00
2022-12-14T10:49:00.691Z,93656.00
2022-12-14T10:53:05.768Z,93663.00
2022-12-14T10:57:08.631Z,93659.00
2022-12-14T11:01:15.596Z,93649.00
2022-12-14T11:05:32.495Z,93641.00
2022-12-14T11:09:40.370Z,93649.00
2022-12-14T11:13:50.480Z,93643.00
2022-12-14T11:18:04.496Z,93635.00
2022-12-14T11:22:18.657Z,93635.00
2022-12-14T11:26:29.187Z,93648.00
2022-12-14T11:30:32.114Z,93646.00
2022-12-14T11:34:39.350Z,93636.00
2022-12-14T11:38:42.802Z,93605.00
2022-12-14T11:42:49.791Z,93622.00
2022-12-14T11:46:56.442Z,93611.00
2022-12-14T11:51:12.594Z,93623.00
2022-12-14T11:55:24.672Z,93628.00
2022-12-14T11:59:37.456Z,93642.00
2022-12-14T12:03:43.921Z,93647.00
2022-12-14T12:07:53.632Z,93618.00
2022-12-14T12:11:56.454Z,93610.00
2022-12-14T12:16:01.258Z,93624.00
2022-12-14T12:20:13.827Z,93621.00
2022-12-14T12:24:22.528Z,93603.00
2022-12-14T12:28:29.391Z,93614.00
2022-12-14T12:32:38.428Z,93615.00
2022-12-14T12:37:02.744Z,93611.00
2022-12-14T12:41:13.436Z,93618.00
2022-12-14T12:45:21.856Z,93588.00
2022-12-14T12:49:24.793Z,93603.00
2022-12-14T12:53:31.820Z,93623.00
2022-12-14T12:57:41.671Z,93611.00
2022-12-14T13:01:48.132Z,93619.00
2022-12-14T13:05:55.194Z,93636.00
2022-12-14T13:10:05.789Z,93638.00
2022-12-14T13:14:24.555Z,93652.00
2022-12-14T13:18:56.733Z,93670.00
2022-12-14T13:22:53.708Z,93658.00
2022-12-14T13:27:18.123Z,93674.00
2022-12-14T13:31:36.256Z,93689.00
2022-12-14T13:36:10.457Z,93684.00
2022-12-14T13:40:41.515Z,93679.00
2022-12-14T13:44:56.987Z,93659.00
2022-12-14T13:49:06.026Z,93672.00
2022-12-14T13:53:17.265Z,93663.00
2022-12-14T13:57:23.861Z,93666.00
2022-12-14T14:02:01.155Z,93672.00
2022-12-14T14:06:09.471Z,93666.00
2022-12-14T14:10:30.254Z,93666.00
2022-12-14T14:14:44.628Z,93684.00
2022-12-14T14:18:51.688Z,93638.00
2022-12-14T14:23:27.727Z,93647.00
2022-12-14T14:27:37.795Z,93656.00
2022-12-14T14:31:48.943Z,93671.00
2022-12-14T14:35:51.810Z,93665.00
2022-12-14T14:40:18.735Z,93648.00
2022-12-14T14:44:37.961Z,93653.00
2022-12-14T14:48:43.772Z,93656.00
2022-12-14T14:52:58.665Z,93665.00
2022-12-14T14:57:02.438Z,93657.00
2022-12-14T15:01:25.006Z,93669.00
2022-12-14T15:05:44.768Z,93658.00
2022-12-14T15:09:49.174Z,93659.00
2022-12-14T15:13:55.406Z,93642.00
2022-12-14T15:18:12.788Z,93657.00
2022-12-14T15:22:19.425Z,93667.00
2022-12-14T15:26:25.638Z,93676.00
2022-12-14T15:30:29.151Z,93683.00
2022-12-14T15:34:32.101Z,93685.00
2022-12-14T15:38:38.148Z,93690.00
2022-12-14T15:42:47.308Z,93701.00
2022-12-14T15:46:55.089Z,93701.00
2022-12-14T15:51:03.002Z,93705.00
2022-12-14T15:55:20.946Z,93700.00
2022-12-14T15:59:26.196Z,93718.00
2022-12-14T16:03:33.177Z,93719.00
2022-12-14T16:07:39.462Z,93726.00
2022-12-14T16:11:46.601Z,93743.00
2022-12-14T16:15:49.897Z,93744.00
2022-12-14T16:19:59.994Z,93743.00
2022-12-14T16:24:22.077Z,93762.00
2022-12-14T16:28:29.805Z,93771.00
2022-12-14T16:32:32.801Z,93771.00
2022-12-14T16:36:36.672Z,93774.00
2022-12-14T16:40:43.194Z,93787.00
2022-12-14T16:44:48.665Z,93788.00
2022-12-14T16:49:19.618Z,93792.00
2022-12-14T16:54:12.260Z,93805.00
2022-12-14T16:58:18.793Z,93793.00
2022-12-14T17:02:30.243Z,93804.00
2022-12-14T17:06:47.382Z,93808.00
2022-12-14T17:10:50.809Z,93809.00
2022-12-14T17:21:30.741Z,93833.00
2022-12-14T17:25:35.516Z,93841.00
2022-12-14T17:29:38.302Z,93843.00
2022-12-14T17:33:42.549Z,93840.00
2022-12-14T17:38:20.872Z,93833.00
2022-12-14T17:47:40.605Z,93857.00
2022-12-14T17:51:46.972Z,93855.00
2022-12-14T18:13:32.350Z,93892.00
2022-12-14T18:17:35.431Z,93887.00
2022-12-14T18:21:38.109Z,93892.00
2022-12-14T18:25:53.698Z,93897.00
2022-12-14T18:29:57.810Z,93919.00
2022-12-14T18:34:00.502Z,93928.00
2022-12-14T18:38:19.527Z,93938.00
2022-12-14T18:42:22.891Z,93945.00
2022-12-14T18:46:30.685Z,93942.00
2022-12-14T18:50:36.192Z,93943.00
2022-12-14T18:54:42.336Z,93937.00
2022-12-14T18:58:46.394Z,93948.00
2022-12-14T19:02:51.538Z,93962.00
2022-12-14T19:06:54.858Z,93958.00
2022-12-14T19:10:59.373Z,93955.00
2022-12-14T19:15:02.849Z,93965.00
2022-12-14T19:19:07.235Z,93968.00
2022-12-14T19:23:15.998Z,93976.00
2022-12-14T19:27:35.706Z,93970.00
2022-12-14T19:31:42.358Z,93959.00
2022-12-14T19:35:48.609Z,93965.00
2022-12-14T19:39:51.627Z,93958.00
2022-12-14T19:43:57.229Z,93970.00
2022-12-14T19:48:00.549Z,93980.00
2022-12-14T19:52:59.145Z,93972.00
2022-12-14T19:57:03.883Z,93966.00
2022-12-14T20:01:10.582Z,93980.00
2022-12-14T20:05:14.764Z,93974.00
2022-12-14T20:09:18.991Z,93990.00
2022-12-14T20:13:25.167Z,93989.00
2022-12-14T20:17:28.093Z,93992.00
2022-12-14T20:21:31.398Z,94007.00
2022-12-14T20:25:34.331Z,93999.00
2022-12-14T20:29:39.811Z,94007.00
2022-12-14T20:33:43.418Z,94013.00
2022-12-14T20:37:46.626Z,94001.00
2022-12-14T20:41:49.942Z,94009.00
2022-12-14T20:45:54.498Z,94028.00
2022-12-14T20:49:57.345Z,94031.00
2022-12-14T20:54:00.331Z,94031.00
2022-12-14T20:58:03.256Z,94041.00
2022-12-14T21:02:08.047Z,94041.00
2022-12-14T21:06:11.702Z,94040.00
2022-12-14T21:10:14.524Z,94050.00
2022-12-14T21:14:18.151Z,94052.00
2022-12-14T21:18:24.599Z,94055.00
2022-12-14T21:22:31.414Z,94047.00
2022-12-14T21:26:35.346Z,94056.00
2022-12-14T21:36:26.623Z,94062.00
2022-12-14T21:41:12.163Z,94053.00
2022-12-14T21:45:15.015Z,94071.00
2022-12-14T21:49:18.169Z,94056.00
2022-12-14T21:53:22.351Z,94071.00
2022-12-14T21:57:49.370Z,94073.00
2022-12-14T22:02:25.581Z,94092.00
2022-12-14T22:12:17.566Z,94088.00
2022-12-14T22:16:20.463Z,94098.00
2022-12-14T22:20:23.192Z,94098.00
2022-12-14T22:24:27.775Z,94099.00
2022-12-14T22:28:31.828Z,94102.00
2022-12-14T22:32:34.563Z,94103.00
2022-12-14T22:36:37.258Z,94099.00
2022-12-14T22:40:39.973Z,94093.00
2022-12-14T22:44:44.147Z,94085.00
2022-12-14T22:48:46.894Z,94080.00
2022-12-14T22:52:49.906Z,94099.00
2022-12-14T22:56:56.666Z,94092.00
2022-12-14T23:01:00.932Z,94096.00
2022-12-14T23:05:03.862Z,94095.00
2022-12-14T23:09:25.075Z,94106.00
2022-12-14T23:13:45.324Z,94106.00
2022-12-14T23:18:06.942Z,94111.00
2022-12-14T23:22:27.046Z,94107.00
2022-12-14T23:26:47.377Z,94109.00
2022-12-14T23:31:07.914Z,94114.00
2022-12-14T23:35:29.294Z,94124.00
2022-12-14T23:39:49.693Z,94117.00
2022-12-14T23:44:10.024Z,94127.00
2022-12-14T23:48:30.464Z,94127.00
2022-12-14T23:52:52.066Z,94126.00
